Time;durP1;ratioP1;P1;durP2;ratioP2;P2;SDS_P1;SDS_P2;PMS_P1;PMS_P2;Temp;Humidity;BMP_temperature;BMP_pressure;BME280_temperature;BME280_humidity;BME280_pressure;Samples;Min_cycle;Max_cycle;Signal;HPM_P1;HPM_P2
2021/06/22 00:00:26;;;;;;;21.23;18.70;;;;;;;20.67;78.87;99699.28;1783244;80;20970;-68
2021/06/22 00:02:54;;;;;;;25.68;18.50;;;;;;;20.67;78.87;99693.34;1774323;80;21459;-68
2021/06/22 00:05:21;;;;;;;21.60;18.10;;;;;;;20.63;78.90;99692.73;1774456;80;20994;-68
2021/06/22 00:07:50;;;;;;;23.73;18.60;;;;;;;20.59;78.90;99702.43;1774267;80;21178;-68
2021/06/22 00:10:17;;;;;;;28.57;19.80;;;;;;;20.54;78.95;99702.38;1774476;80;21017;-68
2021/06/22 00:12:43;;;;;;;26.02;21.93;;;;;;;20.52;78.99;99703.16;1796439;79;21009;-68
2021/06/22 00:15:11;;;;;;;24.55;21.75;;;;;;;20.42;78.99;99703.84;1796647;79;21428;-68
2021/06/22 00:17:39;;;;;;;24.95;20.08;;;;;;;20.36;79.01;99704.86;1783328;80;21490;-68
2021/06/22 00:20:06;;;;;;;23.87;20.37;;;;;;;20.32;79.05;99705.89;1774359;80;21153;-68
2021/06/22 00:22:32;;;;;;;24.35;19.87;;;;;;;20.35;79.09;99705.39;1774316;80;21589;-68
2021/06/22 00:24:58;;;;;;;24.98;20.15;;;;;;;20.37;79.10;99714.07;1774268;80;21045;-68
2021/06/22 00:27:24;;;;;;;26.65;20.12;;;;;;;20.34;79.13;99709.16;1773933;80;21022;-68
2021/06/22 00:29:51;;;;;;;25.90;20.25;;;;;;;20.36;79.19;99712.98;1774121;80;21546;-68
2021/06/22 00:32:18;;;;;;;22.45;19.73;;;;;;;20.33;79.22;99714.31;1761989;80;21103;-68
2021/06/22 00:34:48;;;;;;;29.60;20.57;;;;;;;20.27;79.27;99705.81;1761007;81;20979;-68
2021/06/22 00:37:15;;;;;;;24.12;21.35;;;;;;;20.24;79.35;99710.34;1760469;81;20998;-68
2021/06/22 00:39:41;;;;;;;35.40;25.00;;;;;;;20.26;79.42;99712.28;1761442;81;21042;-68
2021/06/22 00:42:08;;;;;;;36.10;24.60;;;;;;;20.34;79.47;99711.87;1761312;81;21014;-68
2021/06/22 00:44:49;;;;;;;30.05;23.87;;;;;;;20.42;79.51;99719.56;1761242;81;21153;-68
2021/06/22 00:47:16;;;;;;;28.38;24.20;;;;;;;20.48;79.55;99721.00;1761093;81;21011;-68
2021/06/22 00:49:43;;;;;;;36.55;25.00;;;;;;;20.53;79.54;99718.34;1761241;81;20999;-68
2021/06/22 00:52:10;;;;;;;32.23;26.52;;;;;;;20.54;79.53;99724.05;1761250;81;20998;-68
2021/06/22 00:54:36;;;;;;;32.30;25.62;;;;;;;20.49;79.57;99728.04;1761319;81;21015;-68
2021/06/22 00:57:08;;;;;;;32.73;25.95;;;;;;;20.48;79.60;99725.06;1761193;81;21222;-68
2021/06/22 00:59:34;;;;;;;31.70;26.23;;;;;;;20.44;79.59;99720.13;1760427;81;21018;-68
2021/06/22 01:02:04;;;;;;;34.18;25.30;;;;;;;20.44;79.66;99722.83;1761137;81;21061;-68
2021/06/22 01:04:31;;;;;;;30.97;25.25;;;;;;;20.46;79.73;99719.06;1761141;81;21003;-67
2021/06/22 01:06:58;;;;;;;25.20;22.60;;;;;;;20.46;79.81;99720.42;1761399;81;21078;-67
2021/06/22 01:09:25;;;;;;;41.30;29.95;;;;;;;20.44;79.88;99717.41;1761282;81;21173;-68
2021/06/22 01:11:51;;;;;;;41.80;29.90;;;;;;;20.47;79.91;99720.72;1761234;81;20979;-67
2021/06/22 01:14:17;;;;;;;39.58;29.40;;;;;;;20.43;79.96;99729.34;1761173;81;21030;-68
2021/06/22 01:16:44;;;;;;;32.60;25.35;;;;;;;20.47;80.06;99737.79;1761208;81;20991;-68
2021/06/22 01:19:10;;;;;;;37.00;27.55;;;;;;;20.47;80.07;99742.38;1761142;81;21042;-68
2021/06/22 01:21:37;;;;;;;36.30;27.37;;;;;;;20.48;80.12;99746.74;1761286;81;21571;-68
2021/06/22 01:24:09;;;;;;;44.93;28.85;;;;;;;20.47;80.17;99741.03;1761237;81;20999;-68
2021/06/22 01:26:39;;;;;;;33.20;28.27;;;;;;;20.43;80.22;99740.17;1761082;81;21688;-68
2021/06/22 01:29:06;;;;;;;;;;;;;;;20.41;80.28;99739.59;1762043;81;21058;-68
2021/06/22 01:31:32;;;;;;;39.55;32.58;;;;;;;20.43;80.36;99740.71;1765701;80;20181;-68
2021/06/22 01:33:58;;;;;;;41.35;30.62;;;;;;;20.45;80.40;99746.69;1770903;80;21200;-68
2021/06/22 01:36:27;;;;;;;37.20;29.98;;;;;;;20.44;80.40;99744.50;1770977;80;21443;-68
2021/06/22 01:38:52;;;;;;;37.05;28.87;;;;;;;20.44;80.43;99744.50;1770931;81;21030;-68
2021/06/22 01:41:19;;;;;;;36.50;29.27;;;;;;;20.46;80.48;99744.80;1770969;81;20983;-67
2021/06/22 01:43:45;;;;;;;33.38;28.52;;;;;;;20.46;80.54;99742.09;1770958;81;21621;-68
2021/06/22 01:46:11;;;;;;;35.20;28.38;;;;;;;20.43;80.57;99756.44;1771067;81;21718;-67
2021/06/22 01:48:37;;;;;;;33.98;28.92;;;;;;;20.42;80.63;99763.44;1792662;78;21016;-68
2021/06/22 01:51:03;;;;;;;37.55;29.40;;;;;;;20.41;80.70;99774.80;1765013;81;21417;-68
2021/06/22 01:53:30;;;;;;;36.20;30.35;;;;;;;20.39;80.78;99779.66;1792735;80;21435;-68
2021/06/22 01:55:56;;;;;;;32.85;29.42;;;;;;;20.39;80.84;99776.95;1792761;80;21045;-68
2021/06/22 01:58:22;;;;;;;40.58;32.33;;;;;;;20.38;80.91;99779.37;1790603;80;21173;-68
2021/06/22 02:00:54;;;;;;;33.30;29.67;;;;;;;20.39;81.00;99774.25;1764831;81;21538;-68
2021/06/22 02:03:21;;;;;;;39.48;30.35;;;;;;;20.43;81.10;99774.57;1792573;79;21485;-68
2021/06/22 02:05:48;;;;;;;41.60;31.68;;;;;;;20.44;81.14;99782.43;1792762;80;20955;-68
2021/06/22 02:08:15;;;;;;;45.63;31.48;;;;;;;20.44;81.19;99785.70;1790574;80;21004;-67
2021/06/22 02:10:41;;;;;;;40.48;32.42;;;;;;;20.43;81.26;99788.94;1764865;80;21476;-68
2021/06/22 02:13:07;;;;;;;35.43;31.15;;;;;;;20.44;81.32;99787.05;1792745;80;20973;-67
2021/06/22 02:15:33;;;;;;;38.63;33.40;;;;;;;20.46;81.37;99789.50;1792702;80;20966;-68
2021/06/22 02:17:59;;;;;;;48.00;34.80;;;;;;;20.49;81.43;99785.75;1790366;78;20939;-68
2021/06/22 02:20:26;;;;;;;43.75;30.48;;;;;;;20.55;81.47;99783.39;1764951;81;21069;-68
2021/06/22 02:22:52;;;;;;;40.20;30.68;;;;;;;20.56;81.51;99789.64;1792750;80;21226;-68
2021/06/22 02:25:18;;;;;;;37.98;29.63;;;;;;;20.55;81.54;99785.31;1764934;81;21054;-68
2021/06/22 02:27:44;;;;;;;33.35;29.07;;;;;;;20.54;81.56;99799.92;1792350;79;20998;-67
2021/06/22 02:30:14;;;;;;;40.88;30.70;;;;;;;20.53;81.56;99802.33;1792815;80;21424;-68
2021/06/22 02:32:40;;;;;;;38.02;29.05;;;;;;;20.54;81.56;99809.40;1790211;80;21491;-68
2021/06/22 02:35:07;;;;;;;36.83;30.27;;;;;;;20.53;81.57;99812.64;1764659;81;22857;-68
2021/06/22 02:37:35;;;;;;;33.70;28.12;;;;;;;20.54;81.56;99820.23;1801885;78;21463;-68
2021/06/22 02:40:01;;;;;;;36.77;28.23;;;;;;;20.53;81.55;99820.77;1825069;78;20952;-68
2021/06/22 02:42:27;;;;;;;32.30;28.55;;;;;;;20.52;81.53;99815.58;1792350;80;21025;-68
2021/06/22 02:44:53;;;;;;;35.80;30.12;;;;;;;20.51;81.51;99815.31;1824415;78;21017;-68
2021/06/22 02:47:19;;;;;;;33.78;30.27;;;;;;;20.48;81.53;99817.17;1825063;78;21217;-67
2021/06/22 02:49:45;;;;;;;40.12;29.98;;;;;;;20.47;81.54;99827.19;1792308;80;21025;-67
2021/06/22 02:52:11;;;;;;;33.92;29.35;;;;;;;20.47;81.56;99818.23;1825128;78;21550;-67
2021/06/22 02:54:38;;;;;;;37.53;30.57;;;;;;;20.44;81.56;99819.00;1825123;78;20990;-68
2021/06/22 02:57:07;;;;;;;35.63;29.37;;;;;;;20.44;81.54;99831.19;1792644;80;21026;-67
2021/06/22 02:59:33;;;;;;;36.60;29.47;;;;;;;20.44;81.53;99828.48;1824815;78;21240;-67
2021/06/22 03:01:59;;;;;;;33.80;28.85;;;;;;;20.49;81.55;99835.05;1824942;78;21007;-67
2021/06/22 03:04:25;;;;;;;37.15;28.32;;;;;;;20.51;81.53;99843.77;1792694;80;21435;-68
2021/06/22 03:06:51;;;;;;;34.58;28.50;;;;;;;20.55;81.52;99846.27;1824794;78;21483;-67
2021/06/22 03:09:17;;;;;;;34.10;27.50;;;;;;;20.60;81.54;99847.69;1824499;78;20972;-68
2021/06/22 03:11:43;;;;;;;33.00;27.62;;;;;;;20.64;81.54;99846.95;1792623;80;21961;-68
2021/06/22 03:14:10;;;;;;;36.33;27.80;;;;;;;20.69;81.50;99843.50;1825024;78;20983;-68
2021/06/22 03:16:36;;;;;;;40.52;27.15;;;;;;;20.76;81.48;99831.91;1825036;78;21070;-68
2021/06/22 03:19:02;;;;;;;29.12;26.02;;;;;;;20.85;81.47;99823.66;1792564;80;20998;-67
2021/06/22 03:21:28;;;;;;;32.17;25.92;;;;;;;20.93;81.39;99834.08;1824807;78;21479;-67
2021/06/22 03:23:54;;;;;;;30.77;26.27;;;;;;;20.91;81.32;99837.02;1824792;78;22213;-68
2021/06/22 03:26:20;;;;;;;31.52;24.43;;;;;;;20.90;81.31;99831.84;1792514;80;21033;-67
2021/06/22 03:28:46;;;;;;;30.05;24.25;;;;;;;20.94;81.27;99831.09;1824895;78;20970;-67
2021/06/22 03:31:12;;;;;;;28.07;23.38;;;;;;;20.98;81.21;99827.88;1825190;78;21434;-67
2021/06/22 03:33:38;;;;;;;33.98;25.32;;;;;;;20.99;81.11;99816.79;1796137;79;21021;-67
2021/06/22 03:36:06;;;;;;;33.25;25.50;;;;;;;21.00;81.04;99820.33;1828692;78;22687;-67
2021/06/22 03:38:32;;;;;;;33.13;26.77;;;;;;;21.05;80.94;99821.20;1828766;78;21457;-67
2021/06/22 03:40:59;;;;;;;36.13;26.10;;;;;;;21.17;80.87;99819.22;1796192;79;21489;-68
2021/06/22 03:43:25;;;;;;;33.67;28.15;;;;;;;21.28;80.81;99825.59;1828825;78;21007;-67
2021/06/22 03:45:52;;;;;;;30.10;23.92;;;;;;;21.41;80.67;99828.72;1828690;78;20967;-68
2021/06/22 03:48:19;;;;;;;30.43;22.58;;;;;;;21.45;80.52;99836.34;1796210;79;21514;-67
2021/06/22 03:50:45;;;;;;;24.63;20.32;;;;;;;21.43;80.36;99836.05;1828581;78;20972;-67
2021/06/22 03:53:11;;;;;;;26.25;21.48;;;;;;;21.41;80.22;99834.15;1828721;78;20998;-67
2021/06/22 03:55:37;;;;;;;27.22;21.00;;;;;;;21.45;80.12;99839.06;1796165;79;20970;-67
2021/06/22 03:58:05;;;;;;;24.27;21.02;;;;;;;21.54;80.07;99838.88;1828645;78;20983;-67
2021/06/22 04:00:31;;;;;;;25.88;21.77;;;;;;;21.85;79.98;99843.01;1828837;78;22359;-67
2021/06/22 04:02:59;;;;;;;29.07;22.93;;;;;;;21.90;79.65;99840.38;1795984;79;20940;-68
2021/06/22 04:05:27;;;;;;;27.65;21.87;;;;;;;22.15;79.69;99837.07;1828736;78;21006;-68
2021/06/22 04:07:54;;;;;;;30.70;25.10;;;;;;;22.44;79.32;99838.11;1796288;79;20886;-67
2021/06/22 04:10:20;;;;;;;29.87;24.87;;;;;;;22.37;78.94;99841.87;1828418;78;21170;-68
2021/06/22 04:12:46;;;;;;;27.98;21.80;;;;;;;22.46;78.80;99831.86;1828616;78;21721;-67
2021/06/22 04:15:12;;;;;;;26.05;21.15;;;;;;;22.76;78.66;99829.38;1795550;79;20966;-68
2021/06/22 04:17:38;;;;;;;23.87;21.35;;;;;;;22.87;78.14;99828.33;1828419;78;21019;-68
2021/06/22 04:20:06;;;;;;;29.57;20.57;;;;;;;23.11;77.98;99823.30;1828416;78;21447;-68
2021/06/22 04:22:32;;;;;;;24.20;19.40;;;;;;;23.63;77.76;99821.84;1795609;79;20970;-68
2021/06/22 04:24:58;;;;;;;29.15;20.02;;;;;;;23.97;77.14;99825.70;1828588;78;21948;-68
2021/06/22 04:27:24;;;;;;;19.70;17.52;;;;;;;24.15;76.53;99839.36;1828487;78;20999;-68
2021/06/22 04:29:50;;;;;;;25.85;17.98;;;;;;;24.21;76.01;99836.36;1795697;79;20989;-68
2021/06/22 04:32:16;;;;;;;22.17;16.35;;;;;;;24.17;75.63;99847.53;1814228;78;21065;-68
2021/06/22 04:34:42;;;;;;;22.55;16.82;;;;;;;24.15;75.28;99849.72;1764221;81;21553;-68
2021/06/22 04:37:08;;;;;;;20.27;15.43;;;;;;;24.25;75.06;99844.81;1756631;80;22016;-68
2021/06/22 04:39:34;;;;;;;16.35;14.05;;;;;;;24.26;74.71;99847.28;1742572;81;21042;-68
2021/06/22 04:42:01;;;;;;;20.65;13.62;;;;;;;24.15;74.38;99847.54;1742327;82;20988;-68
2021/06/22 04:44:27;;;;;;;19.07;12.58;;;;;;;24.07;74.03;99855.67;1742370;82;21011;-68
2021/06/22 04:46:53;;;;;;;16.45;12.10;;;;;;;24.07;73.69;99850.77;1742621;81;21017;-68
2021/06/22 04:49:19;;;;;;;20.95;11.78;;;;;;;24.08;73.38;99843.69;1744462;81;21926;-68
2021/06/22 04:51:45;;;;;;;18.40;11.65;;;;;;;24.00;72.94;99848.31;1742476;81;20975;-68
2021/06/22 04:54:12;;;;;;;16.60;10.93;;;;;;;24.02;72.69;99851.59;1742447;81;21022;-68
2021/06/22 04:56:39;;;;;;;13.62;10.80;;;;;;;24.08;72.35;99853.77;1742648;81;20891;-68
2021/06/22 04:59:05;;;;;;;16.45;11.65;;;;;;;24.05;72.07;99861.13;1743151;81;21041;-68
2021/06/22 05:01:31;;;;;;;19.45;10.60;;;;;;;24.03;71.77;99857.30;1754989;81;21811;-67
2021/06/22 05:03:57;;;;;;;16.15;10.95;;;;;;;23.98;71.51;99864.13;1742502;82;21047;-68
2021/06/22 05:06:23;;;;;;;17.00;11.28;;;;;;;24.05;71.30;99857.86;1742506;81;21010;-68
2021/06/22 05:08:49;;;;;;;18.15;10.55;;;;;;;24.23;70.97;99856.54;1742676;81;21034;-68
2021/06/22 05:11:16;;;;;;;13.95;10.38;;;;;;;24.19;70.69;99857.63;1742385;81;21100;-68
2021/06/22 05:13:42;;;;;;;14.45;10.68;;;;;;;24.19;70.45;99856.81;1742624;82;22614;-68
2021/06/22 05:16:08;;;;;;;15.78;11.73;;;;;;;24.29;70.29;99863.63;1742412;82;21476;-68
2021/06/22 05:18:35;;;;;;;19.73;11.65;;;;;;;24.34;70.07;99865.81;1771494;81;20971;-68
2021/06/22 05:21:01;;;;;;;18.65;11.15;;;;;;;24.48;69.86;99872.08;1772842;81;20975;-68
2021/06/22 05:23:27;;;;;;;15.70;11.30;;;;;;;24.66;69.64;99879.70;1773287;80;20991;-68
2021/06/22 05:25:53;;;;;;;13.25;10.90;;;;;;;24.84;69.43;99879.13;1773144;80;21918;-68
2021/06/22 05:28:19;;;;;;;19.90;11.33;;;;;;;24.98;69.09;99877.45;1772778;80;21444;-68
2021/06/22 05:30:45;;;;;;;15.30;10.70;;;;;;;24.96;68.83;99870.65;1773120;80;20891;-68
2021/06/22 05:33:11;;;;;;;13.80;11.15;;;;;;;24.79;68.62;99877.75;1771941;80;21194;-68
2021/06/22 05:35:37;;;;;;;15.45;11.18;;;;;;;24.61;68.45;99874.23;1773023;80;20994;-68
2021/06/22 05:38:03;;;;;;;22.07;11.05;;;;;;;24.59;68.35;99870.98;1764038;80;22993;-68
2021/06/22 05:40:29;;;;;;;12.80;10.55;;;;;;;24.46;68.18;99880.52;1758986;81;20983;-68
2021/06/22 05:42:55;;;;;;;12.60;10.98;;;;;;;24.56;68.16;99875.05;1773118;80;21007;-69
2021/06/22 05:45:22;;;;;;;14.50;10.45;;;;;;;24.73;68.04;99866.59;1746009;80;21048;-69
2021/06/22 05:47:48;;;;;;;11.57;10.40;;;;;;;24.76;67.78;99874.22;1768650;81;21495;-69
2021/06/22 05:50:14;;;;;;;14.90;10.63;;;;;;;24.90;67.62;99867.67;1759903;80;21921;-69
2021/06/22 05:52:41;;;;;;;15.88;10.65;;;;;;;25.28;67.41;99867.81;1772153;80;20930;-69
2021/06/22 05:55:17;;;;;;;18.73;11.57;;;;;;;25.55;67.15;99863.89;1760868;81;21535;-69
2021/06/22 05:57:53;;;;;;;14.13;10.43;;;;;;;25.70;66.83;99865.17;1769106;80;21041;-70
2021/06/22 06:00:21;;;;;;;13.88;10.05;;;;;;;25.60;66.41;99867.97;1784992;80;21033;-70
2021/06/22 06:02:49;;;;;;;21.30;12.35;;;;;;;25.34;66.14;99869.42;1788634;80;22189;-70
2021/06/22 06:05:15;;;;;;;15.55;10.65;;;;;;;25.14;66.03;99874.14;1760849;81;21008;-69
2021/06/22 06:07:41;;;;;;;14.03;9.58;;;;;;;25.03;65.91;99865.17;1761025;80;21010;-70
2021/06/22 06:10:09;;;;;;;18.75;10.93;;;;;;;24.97;65.79;99871.75;1761471;80;20978;-70
2021/06/22 06:12:35;;;;;;;13.95;9.98;;;;;;;24.89;65.61;99879.67;1734067;82;21033;-70
2021/06/22 06:15:01;;;;;;;18.80;10.03;;;;;;;24.79;65.55;99880.48;1744481;81;21938;-70
2021/06/22 06:17:27;;;;;;;19.02;10.20;;;;;;;24.76;65.59;99876.95;1747063;81;20888;-70
2021/06/22 06:19:53;;;;;;;15.93;9.85;;;;;;;24.67;65.48;99880.77;1755935;81;20978;-69
2021/06/22 06:22:19;;;;;;;11.48;9.55;;;;;;;24.59;65.46;99883.25;1790401;80;21028;-70
2021/06/22 06:24:45;;;;;;;14.00;9.33;;;;;;;24.58;65.49;99877.52;1783095;80;21779;-70
2021/06/22 06:27:15;;;;;;;15.25;9.93;;;;;;;24.56;65.45;99864.71;1747216;81;21994;-70
2021/06/22 06:29:50;;;;;;;23.12;10.55;;;;;;;24.45;65.38;99867.99;1752549;81;21037;-70
2021/06/22 06:32:10;;;;;;;15.13;9.88;;;;;;;24.42;65.50;99863.63;1734342;81;20990;-69
2021/06/22 06:34:37;;;;;;;16.05;10.08;;;;;;;24.53;65.54;99866.59;1764904;79;21448;-70
2021/06/22 06:37:03;;;;;;;14.95;9.20;;;;;;;24.69;65.44;99869.59;1786608;80;20998;-70
2021/06/22 06:39:29;;;;;;;17.17;10.95;;;;;;;24.70;65.31;99884.30;1817031;78;21719;-70
2021/06/22 06:41:55;;;;;;;16.15;9.98;;;;;;;24.80;65.32;99888.95;1760167;80;20992;-70
2021/06/22 06:44:21;;;;;;;17.35;10.20;;;;;;;24.97;65.31;99892.21;1768457;80;21061;-70
2021/06/22 06:46:48;;;;;;;10.75;9.65;;;;;;;25.21;65.22;99894.59;1805338;78;20963;-70
2021/06/22 06:49:14;;;;;;;13.38;11.08;;;;;;;25.26;65.10;99899.23;1800409;79;21002;-70
2021/06/22 06:51:40;;;;;;;23.55;10.60;;;;;;;25.46;65.01;99902.41;1802491;78;21535;-70
2021/06/22 06:54:06;;;;;;;15.72;10.10;;;;;;;25.69;64.87;99903.14;1785692;80;21449;-70
2021/06/22 06:56:32;;;;;;;13.38;10.32;;;;;;;25.97;64.78;99901.61;1791461;80;20977;-70
2021/06/22 06:58:58;;;;;;;19.65;10.95;;;;;;;26.19;64.45;99904.78;1791489;80;20981;-70
2021/06/22 07:01:24;;;;;;;14.55;10.08;;;;;;;26.07;64.18;99913.30;1776660;79;21019;-70
2021/06/22 07:03:50;;;;;;;17.98;11.18;;;;;;;26.10;64.08;99916.86;1780963;79;21717;-70
2021/06/22 07:06:16;;;;;;;16.10;10.13;;;;;;;26.11;63.87;99914.37;1784976;80;21479;-70
2021/06/22 07:08:43;;;;;;;15.38;10.15;;;;;;;26.17;63.77;99917.39;1788294;80;21021;-69
2021/06/22 07:11:09;;;;;;;18.85;10.58;;;;;;;26.31;63.60;99918.92;1792105;80;20961;-69
2021/06/22 07:13:35;;;;;;;12.00;9.83;;;;;;;26.43;63.37;99924.01;1791975;78;20967;-69
2021/06/22 07:16:02;;;;;;;16.82;10.10;;;;;;;26.38;63.10;99918.59;1785307;79;21503;-69
2021/06/22 07:18:32;;;;;;;14.07;10.08;;;;;;;26.47;62.97;99925.08;1792672;79;20971;-69
2021/06/22 07:20:58;;;;;;;14.95;9.80;;;;;;;26.64;62.94;99929.58;1789686;80;21029;-70
2021/06/22 07:23:24;;;;;;;10.80;8.93;;;;;;;26.89;62.76;99921.72;1822135;78;21380;-70
2021/06/22 07:25:50;;;;;;;17.17;10.20;;;;;;;26.99;62.45;99930.64;1777161;79;21017;-69
2021/06/22 07:28:16;;;;;;;13.32;9.50;;;;;;;27.12;62.29;99925.87;1821451;78;21803;-70
2021/06/22 07:30:42;;;;;;;14.18;9.88;;;;;;;27.37;62.07;99930.80;1760458;81;20965;-70
2021/06/22 07:33:08;;;;;;;15.83;9.30;;;;;;;27.68;61.88;99922.50;1792169;79;20993;-70
2021/06/22 07:35:35;;;;;;;15.08;8.80;;;;;;;27.88;61.62;99918.66;1764269;80;20998;-70
2021/06/22 07:38:01;;;;;;;17.85;9.75;;;;;;;27.80;61.03;99922.31;1792370;80;20985;-70
2021/06/22 07:40:27;;;;;;;12.88;9.33;;;;;;;27.83;60.94;99913.26;1761201;81;21742;-70
2021/06/22 07:42:53;;;;;;;12.18;8.65;;;;;;;28.02;60.85;99903.91;1809203;78;20969;-69
2021/06/22 07:45:20;;;;;;;14.40;9.20;;;;;;;28.23;60.55;99906.64;1792648;80;20974;-70
2021/06/22 07:47:46;;;;;;;23.67;10.20;;;;;;;28.31;60.12;99904.33;1824939;78;21411;-69
2021/06/22 07:50:13;;;;;;;13.83;8.78;;;;;;;28.47;59.87;99890.61;1791738;80;20989;-69
2021/06/22 07:52:40;;;;;;;12.03;7.83;;;;;;;28.70;59.60;99897.94;1792063;79;21841;-69
2021/06/22 07:55:14;;;;;;;13.45;7.60;;;;;;;28.75;59.12;99897.83;1792496;80;20982;-69
2021/06/22 07:57:43;;;;;;;15.60;8.80;;;;;;;28.69;58.83;99901.23;1824530;78;20998;-70
2021/06/22 08:00:18;;;;;;;16.55;8.68;;;;;;;28.65;58.50;99900.73;1791041;79;20985;-69
2021/06/22 08:02:40;;;;;;;14.30;7.42;;;;;;;28.75;58.23;99901.95;1824822;78;21014;-70
2021/06/22 08:05:07;;;;;;;15.18;7.37;;;;;;;28.93;58.11;99912.05;1824962;78;21821;-70
2021/06/22 08:07:34;;;;;;;12.03;7.08;;;;;;;28.88;57.65;99910.80;1792400;80;20966;-70
2021/06/22 08:10:00;;;;;;;11.78;7.58;;;;;;;28.80;57.38;99922.46;1791634;80;20974;-70
2021/06/22 08:12:26;;;;;;;12.65;7.55;;;;;;;28.63;56.85;99926.30;1792497;80;21033;-70
2021/06/22 08:14:52;;;;;;;15.43;7.83;;;;;;;28.61;56.73;99934.00;1790123;80;20971;-70
2021/06/22 08:17:18;;;;;;;12.93;8.88;;;;;;;28.63;56.56;99940.84;1825503;78;21801;-70
2021/06/22 08:19:44;;;;;;;14.50;8.23;;;;;;;28.55;56.38;99949.75;1795865;79;20914;-70
2021/06/22 08:22:10;;;;;;;15.93;9.55;;;;;;;28.73;56.31;99953.61;1824943;78;20966;-70
2021/06/22 08:24:36;;;;;;;16.12;9.93;;;;;;;28.70;56.18;99970.67;1796313;79;20986;-70
2021/06/22 08:27:02;;;;;;;16.27;9.23;;;;;;;28.74;56.16;99982.69;1825031;78;20962;-70
2021/06/22 08:29:28;;;;;;;14.35;8.70;;;;;;;28.93;56.21;99988.94;1760986;80;21690;-70
2021/06/22 08:31:54;;;;;;;11.63;8.08;;;;;;;28.83;55.82;99997.91;1766740;80;20969;-70
2021/06/22 08:34:20;;;;;;;13.78;8.33;;;;;;;28.53;55.72;100003.31;1794967;79;21416;-69
2021/06/22 08:36:47;;;;;;;13.62;7.90;;;;;;;28.29;55.63;100005.56;1799619;78;20982;-70
2021/06/22 08:39:13;;;;;;;12.58;8.20;;;;;;;28.26;55.72;100003.41;1827638;77;21027;-70
2021/06/22 08:41:39;;;;;;;11.18;8.40;;;;;;;28.41;55.76;99997.44;1806759;78;21840;-70
2021/06/22 08:44:05;;;;;;;16.97;10.05;;;;;;;28.44;55.69;100008.64;1851354;77;20974;-70
2021/06/22 08:46:31;;;;;;;18.67;9.45;;;;;;;28.44;55.47;100000.96;1862653;77;20974;-70
2021/06/22 08:48:57;;;;;;;14.75;10.08;;;;;;;28.25;55.36;100011.38;1862590;77;20950;-70
2021/06/22 08:51:23;;;;;;;20.97;11.40;;;;;;;28.06;55.47;100017.93;1825834;77;21002;-70
2021/06/22 08:53:51;;;;;;;16.90;10.48;;;;;;;28.03;55.71;100016.60;1849198;77;21789;-70
2021/06/22 08:56:17;;;;;;;14.38;11.70;;;;;;;27.98;55.87;100020.77;1810900;77;20994;-70
2021/06/22 08:58:43;;;;;;;12.30;11.00;;;;;;;27.99;56.03;100013.36;1795396;79;20973;-70
2021/06/22 09:01:09;;;;;;;17.20;12.28;;;;;;;28.09;56.24;100003.11;1796224;79;20969;-70
2021/06/22 09:03:35;;;;;;;17.00;14.15;;;;;;;28.16;56.21;99998.08;1787296;79;20962;-68
2021/06/22 09:06:03;;;;;;;16.75;14.07;;;;;;;27.89;56.06;99998.42;1813786;78;21851;-68
2021/06/22 09:08:33;;;;;;;21.30;14.10;;;;;;;27.68;56.27;99989.63;1796678;78;20946;-68
2021/06/22 09:11:14;;;;;;;15.78;13.95;;;;;;;27.85;56.37;99988.59;1771601;80;21039;-68
2021/06/22 09:13:42;;;;;;;19.48;16.40;;;;;;;27.92;56.34;99990.42;1794081;79;21375;-68
2021/06/22 09:16:14;;;;;;;18.37;15.30;;;;;;;27.92;56.40;100001.39;1794612;79;21012;-68
2021/06/22 09:18:45;;;;;;;22.85;15.75;;;;;;;27.84;56.41;100003.41;1795001;79;21795;-69
2021/06/22 09:21:24;;;;;;;24.23;17.95;;;;;;;27.60;56.48;100006.71;1798837;79;21055;-69
2021/06/22 09:23:51;;;;;;;;;;;;;;;27.27;56.72;100010.59;1787202;79;21374;-69
2021/06/22 09:26:26;;;;;;;22.02;19.15;;;;;;;27.09;57.15;100012.67;1789270;79;20771;-68
2021/06/22 09:29:05;;;;;;;23.62;18.15;;;;;;;27.03;57.42;100010.27;1768862;79;21503;-68
2021/06/22 09:31:31;;;;;;;22.15;19.25;;;;;;;27.07;57.69;100017.63;1805955;78;21761;-69
2021/06/22 09:33:58;;;;;;;21.48;19.17;;;;;;;27.13;57.90;100021.13;1732009;79;21008;-68
2021/06/22 09:36:26;;;;;;;20.95;18.48;;;;;;;27.19;58.01;100029.03;1791260;80;21479;-68
2021/06/22 09:38:59;;;;;;;22.40;20.20;;;;;;;27.21;58.17;100019.14;1809871;78;20995;-68
2021/06/22 09:41:30;;;;;;;21.73;18.77;;;;;;;27.22;58.20;100020.23;1812780;78;20981;-68
2021/06/22 09:44:08;;;;;;;25.37;19.90;;;;;;;27.17;58.25;100020.27;1781830;79;22551;-68
2021/06/22 09:46:49;;;;;;;25.20;20.53;;;;;;;27.12;58.34;100016.78;1821691;78;20978;-68
2021/06/22 09:49:23;;;;;;;24.25;19.55;;;;;;;26.97;58.44;100020.47;1810434;78;21006;-68
2021/06/22 09:52:06;;;;;;;27.10;20.45;;;;;;;26.87;58.60;100019.19;1782512;79;21014;-68
2021/06/22 09:54:47;;;;;;;22.62;18.70;;;;;;;26.76;58.67;100010.75;1800551;79;20980;-69
2021/06/22 09:57:17;;;;;;;22.93;19.67;;;;;;;26.84;58.88;100015.66;1800486;78;21763;-69
2021/06/22 10:00:08;;;;;;;24.32;17.87;;;;;;;26.88;58.96;100016.72;1789549;78;21502;-68
2021/06/22 10:02:49;;;;;;;22.97;20.23;;;;;;;27.06;59.05;100020.09;1801255;78;20962;-68
2021/06/22 10:05:16;;;;;;;24.30;17.98;;;;;;;27.03;58.94;100019.30;1791618;80;20954;-68
2021/06/22 10:07:42;;;;;;;19.35;16.65;;;;;;;26.86;58.99;100040.80;1774554;80;21541;-68
2021/06/22 10:10:09;;;;;;;21.00;18.82;;;;;;;26.73;59.10;100038.70;1779072;80;21817;-68
2021/06/22 10:12:40;;;;;;;21.87;17.95;;;;;;;26.39;59.21;100051.52;1793190;78;20951;-68
2021/06/22 10:15:07;;;;;;;26.85;19.65;;;;;;;26.00;59.42;100049.45;1772056;80;20958;-68
2021/06/22 10:17:34;;;;;;;23.25;19.65;;;;;;;25.66;59.72;100053.41;1824950;78;21027;-67
2021/06/22 10:20:05;;;;;;;24.12;21.20;;;;;;;25.24;59.99;100048.27;1775718;80;20985;-68
2021/06/22 10:22:32;;;;;;;22.55;20.20;;;;;;;24.87;60.37;100051.84;1790211;80;21828;-68
2021/06/22 10:25:00;;;;;;;26.95;20.75;;;;;;;24.57;60.80;100055.30;1787039;78;21408;-69
2021/06/22 10:27:27;;;;;;;31.40;19.32;;;;;;;24.36;61.19;100059.89;1767670;80;20981;-69
2021/06/22 10:29:55;;;;;;;56.10;22.55;;;;;;;24.02;61.72;100072.28;1804152;77;20951;-71
2021/06/22 10:32:23;;;;;;;27.70;21.00;;;;;;;23.77;62.19;100077.60;1806745;78;21030;-70
2021/06/22 10:34:53;;;;;;;31.62;21.27;;;;;;;23.38;62.97;100088.77;1794869;78;22470;-69
2021/06/22 10:37:26;;;;;;;35.20;22.00;;;;;;;22.99;63.78;100072.92;1796610;78;21390;-70
2021/06/22 10:40:06;;;;;;;27.52;21.57;;;;;;;22.68;64.51;100060.95;1807938;78;21554;-70
2021/06/22 10:42:43;;;;;;;29.80;24.77;;;;;;;22.33;65.37;100067.64;1824431;78;20981;-70
2021/06/22 10:45:10;;;;;;;31.20;23.02;;;;;;;22.14;65.96;100108.42;1794403;78;21037;-70
2021/06/22 10:47:39;;;;;;;35.68;25.82;;;;;;;22.04;66.39;100130.55;1813553;78;21384;-70
2021/06/22 10:50:25;;;;;;;28.07;24.57;;;;;;;21.98;66.76;100131.03;1794291;78;20991;-70
2021/06/22 10:53:04;;;;;;;34.90;24.90;;;;;;;21.99;67.09;100112.29;1796830;78;21056;-70
2021/06/22 10:55:43;;;;;;;38.90;24.80;;;;;;;22.01;67.42;100095.22;1777957;79;21465;-71
2021/06/22 10:58:14;;;;;;;33.40;24.43;;;;;;;21.91;67.83;100069.30;1799153;78;21029;-71
2021/06/22 11:00:53;;;;;;;31.27;24.35;;;;;;;21.80;68.26;100063.41;1762769;80;22110;-72
2021/06/22 11:03:34;;;;;;;27.67;24.18;;;;;;;21.79;68.76;100055.80;1812764;78;21070;-70
2021/06/22 11:06:15;;;;;;;32.38;25.48;;;;;;;21.75;69.11;100061.97;1773721;80;21062;-70
2021/06/22 11:08:42;;;;;;;30.45;24.70;;;;;;;21.80;69.55;100064.77;1802026;77;21038;-70
2021/06/22 11:11:14;;;;;;;34.10;27.77;;;;;;;21.75;69.95;100067.41;1775255;79;21016;-70
2021/06/22 11:13:47;;;;;;;31.25;26.15;;;;;;;21.67;70.31;100064.61;1797125;78;21307;-70
2021/06/22 11:16:23;;;;;;;31.62;26.10;;;;;;;21.63;70.68;100061.28;1754395;81;21525;-70
2021/06/22 11:18:57;;;;;;;30.97;25.02;;;;;;;21.58;70.95;100048.98;1789972;80;20989;-70